sensor_id;sensor_type;location;lat;lon;timestamp;temperature;humidity
5280;DHT22;2663;53.588;10.010;2023-02-18T00:00:58;8.00;99.90
5280;DHT22;2663;53.588;10.010;2023-02-18T00:03:26;8.00;99.90
5280;DHT22;2663;53.588;10.010;2023-02-18T00:05:53;8.00;99.90
5280;DHT22;2663;53.588;10.010;2023-02-18T00:08:21;7.90;99.90
5280;DHT22;2663;53.588;10.010;2023-02-18T00:10:48;7.90;99.90
5280;DHT22;2663;53.588;10.010;2023-02-18T00:13:14;7.90;99.90
5280;DHT22;2663;53.588;10.010;2023-02-18T00:15:41;8.00;99.90
5280;DHT22;2663;53.588;10.010;2023-02-18T00:18:08;8.00;99.90
5280;DHT22;2663;53.588;10.010;2023-02-18T00:20:38;7.90;99.90
5280;DHT22;2663;53.588;10.010;2023-02-18T00:23:05;8.00;99.90
5280;DHT22;2663;53.588;10.010;2023-02-18T00:25:31;7.90;99.90
5280;DHT22;2663;53.588;10.010;2023-02-18T00:27:58;8.00;99.90
5280;DHT22;2663;53.588;10.010;2023-02-18T00:30:24;7.90;99.90
5280;DHT22;2663;53.588;10.010;2023-02-18T00:32:51;7.90;99.90
5280;DHT22;2663;53.588;10.010;2023-02-18T00:35:18;8.00;99.90
5280;DHT22;2663;53.588;10.010;2023-02-18T00:37:44;8.00;99.90
5280;DHT22;2663;53.588;10.010;2023-02-18T00:40:11;7.90;99.90
5280;DHT22;2663;53.588;10.010;2023-02-18T00:42:38;7.90;99.90
5280;DHT22;2663;53.588;10.010;2023-02-18T00:45:05;7.90;99.90
5280;DHT22;2663;53.588;10.010;2023-02-18T00:47:32;7.90;99.90
5280;DHT22;2663;53.588;10.010;2023-02-18T00:49:58;7.90;99.90
5280;DHT22;2663;53.588;10.010;2023-02-18T00:52:25;7.90;99.90
5280;DHT22;2663;53.588;10.010;2023-02-18T00:54:51;7.90;99.90
5280;DHT22;2663;53.588;10.010;2023-02-18T00:57:18;7.90;99.90
5280;DHT22;2663;53.588;10.010;2023-02-18T00:59:45;7.90;99.90
5280;DHT22;2663;53.588;10.010;2023-02-18T01:02:11;7.90;99.90
5280;DHT22;2663;53.588;10.010;2023-02-18T01:04:38;7.90;99.90
5280;DHT22;2663;53.588;10.010;2023-02-18T01:07:05;7.90;99.90
5280;DHT22;2663;53.588;10.010;2023-02-18T01:09:31;7.90;99.90
5280;DHT22;2663;53.588;10.010;2023-02-18T01:11:58;7.90;99.90
5280;DHT22;2663;53.588;10.010;2023-02-18T01:14:25;7.90;99.90
5280;DHT22;2663;53.588;10.010;2023-02-18T01:16:51;7.90;99.90
5280;DHT22;2663;53.588;10.010;2023-02-18T01:19:18;7.90;99.90
5280;DHT22;2663;53.588;10.010;2023-02-18T01:21:45;7.90;99.90
5280;DHT22;2663;53.588;10.010;2023-02-18T01:24:11;7.90;99.90
5280;DHT22;2663;53.588;10.010;2023-02-18T01:26:38;7.90;99.90
5280;DHT22;2663;53.588;10.010;2023-02-18T01:29:05;7.90;99.90
5280;DHT22;2663;53.588;10.010;2023-02-18T01:31:31;7.90;99.90
5280;DHT22;2663;53.588;10.010;2023-02-18T01:33:58;7.90;99.90
5280;DHT22;2663;53.588;10.010;2023-02-18T01:36:24;7.80;99.90
5280;DHT22;2663;53.588;10.010;2023-02-18T01:38:51;7.90;99.90
5280;DHT22;2663;53.588;10.010;2023-02-18T01:41:19;7.80;99.90
5280;DHT22;2663;53.588;10.010;2023-02-18T01:43:46;7.80;99.90
5280;DHT22;2663;53.588;10.010;2023-02-18T01:48:54;7.80;99.90
5280;DHT22;2663;53.588;10.010;2023-02-18T01:51:30;7.80;99.90
5280;DHT22;2663;53.588;10.010;2023-02-18T01:57:02;7.70;99.90
5280;DHT22;2663;53.588;10.010;2023-02-18T01:59:33;7.70;99.90
5280;DHT22;2663;53.588;10.010;2023-02-18T02:02:03;7.80;99.90
5280;DHT22;2663;53.588;10.010;2023-02-18T02:04:30;7.70;99.90
5280;DHT22;2663;53.588;10.010;2023-02-18T02:06:56;7.50;99.90
5280;DHT22;2663;53.588;10.010;2023-02-18T02:09:25;7.70;99.90
5280;DHT22;2663;53.588;10.010;2023-02-18T02:14:46;7.70;99.90
5280;DHT22;2663;53.588;10.010;2023-02-18T02:23:45;7.70;99.90
5280;DHT22;2663;53.588;10.010;2023-02-18T02:37:24;7.70;99.90
5280;DHT22;2663;53.588;10.010;2023-02-18T02:40:08;7.70;99.90
5280;DHT22;2663;53.588;10.010;2023-02-18T02:51:12;7.60;99.90
5280;DHT22;2663;53.588;10.010;2023-02-18T02:53:42;7.60;99.90
5280;DHT22;2663;53.588;10.010;2023-02-18T02:56:20;7.60;99.90
5280;DHT22;2663;53.588;10.010;2023-02-18T02:59:00;7.60;99.90
5280;DHT22;2663;53.588;10.010;2023-02-18T03:02:06;7.60;99.90
5280;DHT22;2663;53.588;10.010;2023-02-18T03:04:51;7.60;99.90
5280;DHT22;2663;53.588;10.010;2023-02-18T03:18:44;7.80;99.90
5280;DHT22;2663;53.588;10.010;2023-02-18T03:21:18;7.80;99.90
5280;DHT22;2663;53.588;10.010;2023-02-18T03:26:42;7.80;99.90
5280;DHT22;2663;53.588;10.010;2023-02-18T03:29:11;7.80;99.90
5280;DHT22;2663;53.588;10.010;2023-02-18T03:31:42;7.70;99.90
5280;DHT22;2663;53.588;10.010;2023-02-18T03:34:14;7.80;99.90
5280;DHT22;2663;53.588;10.010;2023-02-18T03:36:42;7.70;99.90
5280;DHT22;2663;53.588;10.010;2023-02-18T03:39:13;7.60;99.90
5280;DHT22;2663;53.588;10.010;2023-02-18T03:41:41;7.70;99.90
5280;DHT22;2663;53.588;10.010;2023-02-18T03:44:08;7.70;99.90
5280;DHT22;2663;53.588;10.010;2023-02-18T03:46:37;7.70;99.90
5280;DHT22;2663;53.588;10.010;2023-02-18T03:49:04;7.70;99.90
5280;DHT22;2663;53.588;10.010;2023-02-18T03:51:31;7.70;99.90
5280;DHT22;2663;53.588;10.010;2023-02-18T03:53:58;7.80;99.90
5280;DHT22;2663;53.588;10.010;2023-02-18T03:56:25;7.80;99.90
5280;DHT22;2663;53.588;10.010;2023-02-18T03:58:51;7.80;99.90
5280;DHT22;2663;53.588;10.010;2023-02-18T04:01:18;7.80;99.90
5280;DHT22;2663;53.588;10.010;2023-02-18T04:03:45;7.80;99.90
5280;DHT22;2663;53.588;10.010;2023-02-18T04:06:12;7.80;99.90
5280;DHT22;2663;53.588;10.010;2023-02-18T04:08:38;7.80;99.90
5280;DHT22;2663;53.588;10.010;2023-02-18T04:11:05;7.90;99.90
5280;DHT22;2663;53.588;10.010;2023-02-18T04:13:32;7.90;99.90
5280;DHT22;2663;53.588;10.010;2023-02-18T04:15:58;7.80;99.90
5280;DHT22;2663;53.588;10.010;2023-02-18T04:18:25;9.60;99.90
5280;DHT22;2663;53.588;10.010;2023-02-18T04:20:52;7.90;99.90
5280;DHT22;2663;53.588;10.010;2023-02-18T04:23:18;7.80;99.90
5280;DHT22;2663;53.588;10.010;2023-02-18T04:25:45;7.80;99.90
5280;DHT22;2663;53.588;10.010;2023-02-18T04:28:13;7.80;99.90
5280;DHT22;2663;53.588;10.010;2023-02-18T04:30:41;7.80;99.90
5280;DHT22;2663;53.588;10.010;2023-02-18T04:33:08;7.90;99.90
5280;DHT22;2663;53.588;10.010;2023-02-18T04:35:35;7.80;99.90
5280;DHT22;2663;53.588;10.010;2023-02-18T04:38:02;7.80;99.90
5280;DHT22;2663;53.588;10.010;2023-02-18T04:40:29;7.80;99.90
5280;DHT22;2663;53.588;10.010;2023-02-18T04:42:59;7.70;99.90
5280;DHT22;2663;53.588;10.010;2023-02-18T04:45:27;7.70;99.90
5280;DHT22;2663;53.588;10.010;2023-02-18T04:47:54;7.70;99.90
5280;DHT22;2663;53.588;10.010;2023-02-18T04:50:21;7.60;99.90
5280;DHT22;2663;53.588;10.010;2023-02-18T04:52:48;7.60;99.90
5280;DHT22;2663;53.588;10.010;2023-02-18T04:55:15;7.60;99.90
5280;DHT22;2663;53.588;10.010;2023-02-18T04:57:41;7.60;99.90
5280;DHT22;2663;53.588;10.010;2023-02-18T05:00:09;7.60;99.90
5280;DHT22;2663;53.588;10.010;2023-02-18T05:02:38;7.60;99.90
5280;DHT22;2663;53.588;10.010;2023-02-18T05:05:05;7.60;99.90
5280;DHT22;2663;53.588;10.010;2023-02-18T05:07:32;7.60;99.90
5280;DHT22;2663;53.588;10.010;2023-02-18T05:09:59;7.60;99.90
5280;DHT22;2663;53.588;10.010;2023-02-18T05:12:26;7.60;99.90
5280;DHT22;2663;53.588;10.010;2023-02-18T05:14:52;7.60;99.90
5280;DHT22;2663;53.588;10.010;2023-02-18T05:17:19;7.60;99.90
5280;DHT22;2663;53.588;10.010;2023-02-18T05:19:46;7.60;99.90
5280;DHT22;2663;53.588;10.010;2023-02-18T05:22:12;7.60;99.90
5280;DHT22;2663;53.588;10.010;2023-02-18T05:24:39;7.70;99.90
5280;DHT22;2663;53.588;10.010;2023-02-18T05:27:06;7.60;99.90
5280;DHT22;2663;53.588;10.010;2023-02-18T05:29:32;7.60;99.90
5280;DHT22;2663;53.588;10.010;2023-02-18T05:31:59;7.50;99.90
5280;DHT22;2663;53.588;10.010;2023-02-18T05:34:26;7.60;99.90
5280;DHT22;2663;53.588;10.010;2023-02-18T05:36:52;7.50;99.90
5280;DHT22;2663;53.588;10.010;2023-02-18T05:39:19;7.50;99.90
5280;DHT22;2663;53.588;10.010;2023-02-18T05:41:46;7.40;99.90
5280;DHT22;2663;53.588;10.010;2023-02-18T05:44:12;7.40;99.90
5280;DHT22;2663;53.588;10.010;2023-02-18T05:47:09;7.40;99.90
5280;DHT22;2663;53.588;10.010;2023-02-18T05:49:38;7.40;99.90
5280;DHT22;2663;53.588;10.010;2023-02-18T05:52:06;7.40;99.90
5280;DHT22;2663;53.588;10.010;2023-02-18T05:54:33;7.40;99.90
5280;DHT22;2663;53.588;10.010;2023-02-18T05:57:01;7.40;99.90
5280;DHT22;2663;53.588;10.010;2023-02-18T05:59:28;7.50;99.90
5280;DHT22;2663;53.588;10.010;2023-02-18T06:01:54;7.50;99.90
5280;DHT22;2663;53.588;10.010;2023-02-18T06:04:21;7.30;99.90
5280;DHT22;2663;53.588;10.010;2023-02-18T06:06:48;7.40;99.90
5280;DHT22;2663;53.588;10.010;2023-02-18T06:09:15;7.30;99.90
5280;DHT22;2663;53.588;10.010;2023-02-18T06:11:42;7.30;99.90
5280;DHT22;2663;53.588;10.010;2023-02-18T06:14:09;7.20;99.90
5280;DHT22;2663;53.588;10.010;2023-02-18T06:16:35;7.20;99.90
5280;DHT22;2663;53.588;10.010;2023-02-18T06:19:02;7.30;99.90
5280;DHT22;2663;53.588;10.010;2023-02-18T06:21:29;7.20;99.90
5280;DHT22;2663;53.588;10.010;2023-02-18T06:23:55;7.20;99.90
5280;DHT22;2663;53.588;10.010;2023-02-18T06:26:22;7.10;99.90
5280;DHT22;2663;53.588;10.010;2023-02-18T06:28:49;7.20;99.90
5280;DHT22;2663;53.588;10.010;2023-02-18T06:31:15;7.20;99.90
5280;DHT22;2663;53.588;10.010;2023-02-18T06:33:42;7.20;99.90
5280;DHT22;2663;53.588;10.010;2023-02-18T06:36:11;7.20;99.90
5280;DHT22;2663;53.588;10.010;2023-02-18T06:38:40;7.20;99.90
5280;DHT22;2663;53.588;10.010;2023-02-18T06:41:08;7.20;99.90
5280;DHT22;2663;53.588;10.010;2023-02-18T06:43:35;7.20;99.90
5280;DHT22;2663;53.588;10.010;2023-02-18T06:46:03;7.30;99.90
5280;DHT22;2663;53.588;10.010;2023-02-18T06:48:30;7.30;99.90
5280;DHT22;2663;53.588;10.010;2023-02-18T06:50:57;7.30;99.90
5280;DHT22;2663;53.588;10.010;2023-02-18T06:53:24;7.30;99.90
5280;DHT22;2663;53.588;10.010;2023-02-18T06:55:50;7.40;99.90
5280;DHT22;2663;53.588;10.010;2023-02-18T06:58:17;7.40;99.90
5280;DHT22;2663;53.588;10.010;2023-02-18T07:00:44;7.50;99.90
5280;DHT22;2663;53.588;10.010;2023-02-18T07:03:12;7.50;99.90
5280;DHT22;2663;53.588;10.010;2023-02-18T07:05:41;7.60;99.90
5280;DHT22;2663;53.588;10.010;2023-02-18T07:08:08;7.60;99.90
5280;DHT22;2663;53.588;10.010;2023-02-18T07:10:34;7.50;99.90
5280;DHT22;2663;53.588;10.010;2023-02-18T07:13:01;7.50;99.90
5280;DHT22;2663;53.588;10.010;2023-02-18T07:15:28;7.60;99.90
5280;DHT22;2663;53.588;10.010;2023-02-18T07:17:55;7.60;99.90
5280;DHT22;2663;53.588;10.010;2023-02-18T07:20:24;7.70;99.90
5280;DHT22;2663;53.588;10.010;2023-02-18T07:22:51;7.80;99.90
5280;DHT22;2663;53.588;10.010;2023-02-18T07:25:18;7.90;99.90
5280;DHT22;2663;53.588;10.010;2023-02-18T07:27:48;7.90;99.90
5280;DHT22;2663;53.588;10.010;2023-02-18T07:30:15;8.80;99.90
5280;DHT22;2663;53.588;10.010;2023-02-18T07:32:42;9.50;99.90
5280;DHT22;2663;53.588;10.010;2023-02-18T07:35:10;9.60;99.90
5280;DHT22;2663;53.588;10.010;2023-02-18T07:37:38;9.90;99.90
5280;DHT22;2663;53.588;10.010;2023-02-18T07:40:05;9.70;99.90
5280;DHT22;2663;53.588;10.010;2023-02-18T07:42:32;9.60;99.90
5280;DHT22;2663;53.588;10.010;2023-02-18T07:44:59;9.30;99.90
5280;DHT22;2663;53.588;10.010;2023-02-18T07:47:26;9.00;99.90
5280;DHT22;2663;53.588;10.010;2023-02-18T07:49:52;8.80;99.90
5280;DHT22;2663;53.588;10.010;2023-02-18T07:52:19;8.40;99.90
5280;DHT22;2663;53.588;10.010;2023-02-18T07:54:45;8.30;99.90
5280;DHT22;2663;53.588;10.010;2023-02-18T07:57:12;8.30;99.90
5280;DHT22;2663;53.588;10.010;2023-02-18T07:59:39;8.20;99.90
5280;DHT22;2663;53.588;10.010;2023-02-18T08:02:06;6.70;99.90
5280;DHT22;2663;53.588;10.010;2023-02-18T08:04:33;8.00;99.90
5280;DHT22;2663;53.588;10.010;2023-02-18T08:07:00;8.00;99.90
5280;DHT22;2663;53.588;10.010;2023-02-18T08:09:26;8.00;99.90
5280;DHT22;2663;53.588;10.010;2023-02-18T08:11:53;8.10;99.90
5280;DHT22;2663;53.588;10.010;2023-02-18T08:14:20;8.00;99.90
5280;DHT22;2663;53.588;10.010;2023-02-18T08:16:46;8.10;99.90
5280;DHT22;2663;53.588;10.010;2023-02-18T08:19:13;8.20;99.90
5280;DHT22;2663;53.588;10.010;2023-02-18T08:21:40;8.20;99.90
5280;DHT22;2663;53.588;10.010;2023-02-18T08:24:06;8.10;99.90
5280;DHT22;2663;53.588;10.010;2023-02-18T08:26:33;8.00;99.90
5280;DHT22;2663;53.588;10.010;2023-02-18T08:29:00;8.10;99.90
5280;DHT22;2663;53.588;10.010;2023-02-18T08:31:28;8.20;99.90
5280;DHT22;2663;53.588;10.010;2023-02-18T08:33:56;8.10;99.90
5280;DHT22;2663;53.588;10.010;2023-02-18T08:36:23;8.60;99.90
5280;DHT22;2663;53.588;10.010;2023-02-18T08:38:50;9.00;99.90
5280;DHT22;2663;53.588;10.010;2023-02-18T08:41:17;9.20;99.90
5280;DHT22;2663;53.588;10.010;2023-02-18T08:43:46;9.20;99.90
5280;DHT22;2663;53.588;10.010;2023-02-18T08:46:14;9.00;99.90
5280;DHT22;2663;53.588;10.010;2023-02-18T08:48:50;8.80;99.90
5280;DHT22;2663;53.588;10.010;2023-02-18T08:51:19;8.70;99.90
5280;DHT22;2663;53.588;10.010;2023-02-18T08:53:48;8.60;99.90
5280;DHT22;2663;53.588;10.010;2023-02-18T08:56:15;8.60;99.90
5280;DHT22;2663;53.588;10.010;2023-02-18T08:58:43;8.50;99.90
5280;DHT22;2663;53.588;10.010;2023-02-18T09:01:11;8.60;99.90
5280;DHT22;2663;53.588;10.010;2023-02-18T09:03:38;8.60;99.90
5280;DHT22;2663;53.588;10.010;2023-02-18T09:06:05;8.60;99.90
5280;DHT22;2663;53.588;10.010;2023-02-18T09:08:32;8.50;99.90
5280;DHT22;2663;53.588;10.010;2023-02-18T09:11:01;8.60;99.90
5280;DHT22;2663;53.588;10.010;2023-02-18T09:13:30;8.50;99.90
5280;DHT22;2663;53.588;10.010;2023-02-18T09:16:02;8.50;99.90
5280;DHT22;2663;53.588;10.010;2023-02-18T09:18:30;8.40;99.90
5280;DHT22;2663;53.588;10.010;2023-02-18T09:20:59;8.50;99.90
5280;DHT22;2663;53.588;10.010;2023-02-18T09:23:28;8.50;99.90
5280;DHT22;2663;53.588;10.010;2023-02-18T09:25:56;8.50;99.90
5280;DHT22;2663;53.588;10.010;2023-02-18T09:28:23;8.50;99.90
5280;DHT22;2663;53.588;10.010;2023-02-18T09:30:51;8.50;99.90
5280;DHT22;2663;53.588;10.010;2023-02-18T09:33:18;8.50;99.90
5280;DHT22;2663;53.588;10.010;2023-02-18T09:35:45;8.50;99.90
5280;DHT22;2663;53.588;10.010;2023-02-18T09:38:15;8.50;99.90
5280;DHT22;2663;53.588;10.010;2023-02-18T09:40:45;8.40;99.90
5280;DHT22;2663;53.588;10.010;2023-02-18T09:43:39;8.50;99.90
5280;DHT22;2663;53.588;10.010;2023-02-18T09:48:43;8.50;99.90
5280;DHT22;2663;53.588;10.010;2023-02-18T09:51:13;8.50;99.90
5280;DHT22;2663;53.588;10.010;2023-02-18T09:53:42;8.60;99.90
5280;DHT22;2663;53.588;10.010;2023-02-18T09:56:16;8.60;99.90
5280;DHT22;2663;53.588;10.010;2023-02-18T09:58:46;8.60;99.90
5280;DHT22;2663;53.588;10.010;2023-02-18T10:01:31;8.60;99.90
5280;DHT22;2663;53.588;10.010;2023-02-18T10:04:12;8.60;99.90
5280;DHT22;2663;53.588;10.010;2023-02-18T10:06:41;8.60;99.90
5280;DHT22;2663;53.588;10.010;2023-02-18T10:09:20;8.70;99.90
5280;DHT22;2663;53.588;10.010;2023-02-18T10:11:51;8.60;99.90
5280;DHT22;2663;53.588;10.010;2023-02-18T10:14:20;8.60;99.90
5280;DHT22;2663;53.588;10.010;2023-02-18T10:16:48;8.60;99.90
5280;DHT22;2663;53.588;10.010;2023-02-18T10:19:31;8.60;99.90
5280;DHT22;2663;53.588;10.010;2023-02-18T10:22:01;8.60;99.90
5280;DHT22;2663;53.588;10.010;2023-02-18T10:24:58;8.60;99.90
5280;DHT22;2663;53.588;10.010;2023-02-18T10:27:30;8.60;99.90
5280;DHT22;2663;53.588;10.010;2023-02-18T10:30:26;8.60;99.90
5280;DHT22;2663;53.588;10.010;2023-02-18T10:33:01;8.50;99.90
5280;DHT22;2663;53.588;10.010;2023-02-18T10:35:50;8.50;99.90
5280;DHT22;2663;53.588;10.010;2023-02-18T10:47:38;8.80;99.90
5280;DHT22;2663;53.588;10.010;2023-02-18T10:52:45;8.90;99.90
5280;DHT22;2663;53.588;10.010;2023-02-18T10:55:14;8.90;99.90
5280;DHT22;2663;53.588;10.010;2023-02-18T10:57:48;8.90;99.90
5280;DHT22;2663;53.588;10.010;2023-02-18T11:00:25;9.00;99.90
5280;DHT22;2663;53.588;10.010;2023-02-18T11:03:15;9.00;99.90
5280;DHT22;2663;53.588;10.010;2023-02-18T11:05:44;9.00;99.90
5280;DHT22;2663;53.588;10.010;2023-02-18T11:08:17;9.10;99.90
5280;DHT22;2663;53.588;10.010;2023-02-18T11:10:46;9.00;99.90
5280;DHT22;2663;53.588;10.010;2023-02-18T11:13:16;9.00;99.90
5280;DHT22;2663;53.588;10.010;2023-02-18T11:16:12;9.10;99.90
5280;DHT22;2663;53.588;10.010;2023-02-18T11:18:44;9.20;99.90
5280;DHT22;2663;53.588;10.010;2023-02-18T11:21:30;9.10;99.90
5280;DHT22;2663;53.588;10.010;2023-02-18T11:24:08;9.00;99.90
5280;DHT22;2663;53.588;10.010;2023-02-18T11:26:37;8.80;99.90
5280;DHT22;2663;53.588;10.010;2023-02-18T11:29:18;8.00;99.90
5280;DHT22;2663;53.588;10.010;2023-02-18T11:31:48;8.90;99.90
5280;DHT22;2663;53.588;10.010;2023-02-18T11:34:27;9.00;99.90
5280;DHT22;2663;53.588;10.010;2023-02-18T11:37:15;9.10;99.90
5280;DHT22;2663;53.588;10.010;2023-02-18T11:39:45;9.30;99.90
5280;DHT22;2663;53.588;10.010;2023-02-18T11:42:14;9.70;99.90
5280;DHT22;2663;53.588;10.010;2023-02-18T11:44:51;10.30;99.90
5280;DHT22;2663;53.588;10.010;2023-02-18T11:50:03;10.50;99.90
5280;DHT22;2663;53.588;10.010;2023-02-18T11:52:41;10.80;99.90
5280;DHT22;2663;53.588;10.010;2023-02-18T11:55:21;11.00;99.90
5280;DHT22;2663;53.588;10.010;2023-02-18T11:57:54;11.00;99.90
5280;DHT22;2663;53.588;10.010;2023-02-18T12:00:44;11.20;99.90
5280;DHT22;2663;53.588;10.010;2023-02-18T12:03:37;11.00;99.90
5280;DHT22;2663;53.588;10.010;2023-02-18T12:06:22;11.00;99.90
5280;DHT22;2663;53.588;10.010;2023-02-18T12:09:23;11.00;99.90
5280;DHT22;2663;53.588;10.010;2023-02-18T12:11:57;10.80;99.90
5280;DHT22;2663;53.588;10.010;2023-02-18T12:14:26;10.80;99.90
5280;DHT22;2663;53.588;10.010;2023-02-18T12:17:20;10.60;99.90
5280;DHT22;2663;53.588;10.010;2023-02-18T12:31:27;10.30;99.90
5280;DHT22;2663;53.588;10.010;2023-02-18T12:42:52;10.20;99.90
5280;DHT22;2663;53.588;10.010;2023-02-18T12:45:44;10.10;99.90
5280;DHT22;2663;53.588;10.010;2023-02-18T12:48:27;10.10;99.90
5280;DHT22;2663;53.588;10.010;2023-02-18T12:57:25;9.90;99.90
5280;DHT22;2663;53.588;10.010;2023-02-18T13:08:09;9.90;99.90
5280;DHT22;2663;53.588;10.010;2023-02-18T13:10:53;9.90;99.90
5280;DHT22;2663;53.588;10.010;2023-02-18T13:13:32;9.90;99.90
5280;DHT22;2663;53.588;10.010;2023-02-18T13:16:10;9.90;99.90
5280;DHT22;2663;53.588;10.010;2023-02-18T13:18:41;9.90;99.90
5280;DHT22;2663;53.588;10.010;2023-02-18T13:21:14;9.90;99.90
5280;DHT22;2663;53.588;10.010;2023-02-18T13:23:57;9.90;99.90
5280;DHT22;2663;53.588;10.010;2023-02-18T13:26:27;9.90;99.90
5280;DHT22;2663;53.588;10.010;2023-02-18T13:34:23;9.80;99.90
5280;DHT22;2663;53.588;10.010;2023-02-18T13:39:29;9.80;99.90
5280;DHT22;2663;53.588;10.010;2023-02-18T13:42:25;9.80;99.90
5280;DHT22;2663;53.588;10.010;2023-02-18T13:47:45;9.70;99.90
5280;DHT22;2663;53.588;10.010;2023-02-18T13:52:55;9.70;99.90
5280;DHT22;2663;53.588;10.010;2023-02-18T13:58:19;9.50;99.90
5280;DHT22;2663;53.588;10.010;2023-02-18T14:00:54;9.50;99.90
5280;DHT22;2663;53.588;10.010;2023-02-18T14:06:18;9.50;99.90
5280;DHT22;2663;53.588;10.010;2023-02-18T14:08:46;9.40;99.90
5280;DHT22;2663;53.588;10.010;2023-02-18T14:13:46;9.30;99.90
5280;DHT22;2663;53.588;10.010;2023-02-18T14:16:14;9.30;99.90
5280;DHT22;2663;53.588;10.010;2023-02-18T14:18:53;9.20;99.90
5280;DHT22;2663;53.588;10.010;2023-02-18T14:21:34;9.10;99.90
5280;DHT22;2663;53.588;10.010;2023-02-18T14:24:09;8.90;99.90
5280;DHT22;2663;53.588;10.010;2023-02-18T14:26:39;8.80;99.90
5280;DHT22;2663;53.588;10.010;2023-02-18T14:29:20;8.60;99.90
5280;DHT22;2663;53.588;10.010;2023-02-18T14:31:56;8.40;99.90
5280;DHT22;2663;53.588;10.010;2023-02-18T14:40:33;8.40;99.90
5280;DHT22;2663;53.588;10.010;2023-02-18T14:50:49;8.20;99.90
5280;DHT22;2663;53.588;10.010;2023-02-18T14:53:19;8.30;99.90
5280;DHT22;2663;53.588;10.010;2023-02-18T14:55:49;8.20;99.90
5280;DHT22;2663;53.588;10.010;2023-02-18T14:58:38;8.20;99.90
5280;DHT22;2663;53.588;10.010;2023-02-18T15:01:17;8.20;99.90
5280;DHT22;2663;53.588;10.010;2023-02-18T15:03:46;8.20;99.90
5280;DHT22;2663;53.588;10.010;2023-02-18T15:06:28;8.30;99.90
5280;DHT22;2663;53.588;10.010;2023-02-18T15:08:59;8.30;99.90
5280;DHT22;2663;53.588;10.010;2023-02-18T15:11:49;8.10;99.90
5280;DHT22;2663;53.588;10.010;2023-02-18T15:14:20;8.20;99.90
5280;DHT22;2663;53.588;10.010;2023-02-18T15:16:48;8.20;99.90
5280;DHT22;2663;53.588;10.010;2023-02-18T15:19:17;8.10;99.90
5280;DHT22;2663;53.588;10.010;2023-02-18T15:21:47;8.10;99.90
5280;DHT22;2663;53.588;10.010;2023-02-18T15:24:36;8.00;99.90
5280;DHT22;2663;53.588;10.010;2023-02-18T15:27:21;8.00;99.90
5280;DHT22;2663;53.588;10.010;2023-02-18T15:29:50;8.00;99.90
5280;DHT22;2663;53.588;10.010;2023-02-18T15:32:21;7.90;99.90
5280;DHT22;2663;53.588;10.010;2023-02-18T15:34:53;7.80;99.90
5280;DHT22;2663;53.588;10.010;2023-02-18T15:37:21;7.80;99.90
5280;DHT22;2663;53.588;10.010;2023-02-18T15:39:48;7.80;99.90
5280;DHT22;2663;53.588;10.010;2023-02-18T15:42:18;7.80;99.90
5280;DHT22;2663;53.588;10.010;2023-02-18T15:44:50;7.80;99.90
5280;DHT22;2663;53.588;10.010;2023-02-18T15:47:19;7.80;99.90
5280;DHT22;2663;53.588;10.010;2023-02-18T15:49:51;7.80;99.90
5280;DHT22;2663;53.588;10.010;2023-02-18T15:52:28;7.80;99.90
5280;DHT22;2663;53.588;10.010;2023-02-18T15:55:00;7.90;99.90
5280;DHT22;2663;53.588;10.010;2023-02-18T15:57:28;7.80;99.90
5280;DHT22;2663;53.588;10.010;2023-02-18T16:00:02;7.60;99.90
5280;DHT22;2663;53.588;10.010;2023-02-18T16:02:32;7.50;99.90
5280;DHT22;2663;53.588;10.010;2023-02-18T16:05:00;7.40;99.90
5280;DHT22;2663;53.588;10.010;2023-02-18T16:07:36;7.50;99.90
5280;DHT22;2663;53.588;10.010;2023-02-18T16:10:22;7.60;99.90
5280;DHT22;2663;53.588;10.010;2023-02-18T16:12:53;7.60;99.90
5280;DHT22;2663;53.588;10.010;2023-02-18T16:15:30;7.60;99.90
5280;DHT22;2663;53.588;10.010;2023-02-18T16:17:57;7.50;99.90
5280;DHT22;2663;53.588;10.010;2023-02-18T16:23:11;7.50;99.90
5280;DHT22;2663;53.588;10.010;2023-02-18T16:28:11;7.70;99.90
5280;DHT22;2663;53.588;10.010;2023-02-18T16:30:38;7.70;99.90
5280;DHT22;2663;53.588;10.010;2023-02-18T16:33:07;7.80;99.90
5280;DHT22;2663;53.588;10.010;2023-02-18T16:35:34;7.90;99.90
5280;DHT22;2663;53.588;10.010;2023-02-18T16:38:20;7.90;99.90
5280;DHT22;2663;53.588;10.010;2023-02-18T16:40:47;7.70;99.90
5280;DHT22;2663;53.588;10.010;2023-02-18T16:43:17;7.80;99.90
5280;DHT22;2663;53.588;10.010;2023-02-18T16:45:49;7.60;99.90
5280;DHT22;2663;53.588;10.010;2023-02-18T16:48:27;7.60;99.90
5280;DHT22;2663;53.588;10.010;2023-02-18T16:50:55;7.60;99.90
5280;DHT22;2663;53.588;10.010;2023-02-18T16:53:22;7.60;99.90
5280;DHT22;2663;53.588;10.010;2023-02-18T16:55:49;7.60;99.90
5280;DHT22;2663;53.588;10.010;2023-02-18T16:58:16;7.60;99.90
5280;DHT22;2663;53.588;10.010;2023-02-18T17:00:44;7.50;99.90
5280;DHT22;2663;53.588;10.010;2023-02-18T17:03:11;7.30;99.90
5280;DHT22;2663;53.588;10.010;2023-02-18T17:05:38;7.40;99.90
5280;DHT22;2663;53.588;10.010;2023-02-18T17:08:15;7.40;99.90
5280;DHT22;2663;53.588;10.010;2023-02-18T17:10:47;7.40;99.90
5280;DHT22;2663;53.588;10.010;2023-02-18T17:13:20;7.40;99.90
5280;DHT22;2663;53.588;10.010;2023-02-18T17:15:50;7.40;99.90
5280;DHT22;2663;53.588;10.010;2023-02-18T17:18:17;7.40;99.90
5280;DHT22;2663;53.588;10.010;2023-02-18T17:20:44;7.40;99.90
5280;DHT22;2663;53.588;10.010;2023-02-18T17:23:15;7.40;99.90
5280;DHT22;2663;53.588;10.010;2023-02-18T17:25:43;7.50;99.90
5280;DHT22;2663;53.588;10.010;2023-02-18T17:28:11;7.30;99.90
5280;DHT22;2663;53.588;10.010;2023-02-18T17:30:38;7.30;99.90
5280;DHT22;2663;53.588;10.010;2023-02-18T17:33:09;7.40;99.90
5280;DHT22;2663;53.588;10.010;2023-02-18T17:35:37;7.30;99.90
5280;DHT22;2663;53.588;10.010;2023-02-18T17:38:10;7.20;99.90
5280;DHT22;2663;53.588;10.010;2023-02-18T17:40:37;7.20;99.90
5280;DHT22;2663;53.588;10.010;2023-02-18T17:43:04;7.20;99.90
5280;DHT22;2663;53.588;10.010;2023-02-18T17:45:36;7.20;99.90
5280;DHT22;2663;53.588;10.010;2023-02-18T17:48:05;7.20;99.90
5280;DHT22;2663;53.588;10.010;2023-02-18T17:50:32;7.20;99.90
5280;DHT22;2663;53.588;10.010;2023-02-18T17:52:58;7.20;99.90
5280;DHT22;2663;53.588;10.010;2023-02-18T17:55:28;7.40;99.90
5280;DHT22;2663;53.588;10.010;2023-02-18T17:57:55;7.40;99.90
5280;DHT22;2663;53.588;10.010;2023-02-18T18:00:37;7.40;99.90
5280;DHT22;2663;53.588;10.010;2023-02-18T18:03:04;7.40;99.90
5280;DHT22;2663;53.588;10.010;2023-02-18T18:05:33;7.20;99.90
5280;DHT22;2663;53.588;10.010;2023-02-18T18:08:02;7.20;99.90
5280;DHT22;2663;53.588;10.010;2023-02-18T18:10:31;7.10;99.90
5280;DHT22;2663;53.588;10.010;2023-02-18T18:13:01;7.10;99.90
5280;DHT22;2663;53.588;10.010;2023-02-18T18:15:39;7.20;99.90
5280;DHT22;2663;53.588;10.010;2023-02-18T18:18:06;7.20;99.90
5280;DHT22;2663;53.588;10.010;2023-02-18T18:20:34;7.20;99.90
5280;DHT22;2663;53.588;10.010;2023-02-18T18:23:03;7.10;99.90
5280;DHT22;2663;53.588;10.010;2023-02-18T18:25:36;7.20;99.90
5280;DHT22;2663;53.588;10.010;2023-02-18T18:28:04;7.20;99.90
5280;DHT22;2663;53.588;10.010;2023-02-18T18:30:35;7.20;99.90
5280;DHT22;2663;53.588;10.010;2023-02-18T18:33:04;7.10;99.90
5280;DHT22;2663;53.588;10.010;2023-02-18T18:35:36;7.10;99.90
5280;DHT22;2663;53.588;10.010;2023-02-18T18:38:04;7.10;99.90
5280;DHT22;2663;53.588;10.010;2023-02-18T18:40:32;7.00;99.90
5280;DHT22;2663;53.588;10.010;2023-02-18T18:42:59;7.00;99.90
5280;DHT22;2663;53.588;10.010;2023-02-18T18:45:33;6.90;99.90